createdAt,value
2018-09-29T00:00:29.069Z,5.73
2018-09-29T00:02:59.435Z,5.83
2018-09-29T00:05:29.903Z,6.17
2018-09-29T00:08:00.436Z,6.10
2018-09-29T00:10:30.880Z,6.50
2018-09-29T00:13:01.159Z,7.23
2018-09-29T00:15:31.586Z,7.93
2018-09-29T00:18:01.976Z,8.53
2018-09-29T00:20:32.299Z,8.50
2018-09-29T00:23:02.585Z,8.60
2018-09-29T00:25:32.937Z,8.73
2018-09-29T00:28:03.281Z,8.90
2018-09-29T00:30:33.697Z,9.53
2018-09-29T00:33:04.135Z,10.00
2018-09-29T00:35:34.482Z,9.30
2018-09-29T00:38:04.807Z,8.60
2018-09-29T00:40:35.096Z,9.37
2018-09-29T00:43:05.424Z,9.40
2018-09-29T00:45:35.724Z,10.30
2018-09-29T00:48:06.047Z,9.10
2018-09-29T00:50:36.333Z,9.80
2018-09-29T00:53:06.644Z,9.00
2018-09-29T00:55:36.965Z,7.73
2018-09-29T00:58:07.241Z,8.30
2018-09-29T01:00:37.585Z,7.30
2018-09-29T01:03:07.939Z,7.47
2018-09-29T01:05:38.298Z,7.60
2018-09-29T01:08:08.580Z,7.67
2018-09-29T01:10:38.901Z,7.23
2018-09-29T01:13:09.150Z,6.77
2018-09-29T01:15:39.824Z,6.67
2018-09-29T01:18:10.192Z,5.97
2018-09-29T01:20:40.538Z,5.90
2018-09-29T01:23:10.806Z,6.00
2018-09-29T01:25:41.106Z,6.00
2018-09-29T01:28:11.380Z,5.33
2018-09-29T01:30:41.694Z,5.57
2018-09-29T01:33:11.981Z,5.53
2018-09-29T01:35:42.275Z,4.90
2018-09-29T01:38:12.568Z,5.20
2018-09-29T01:40:42.889Z,4.60
2018-09-29T01:43:13.163Z,5.00
2018-09-29T01:45:43.480Z,4.70
2018-09-29T01:48:13.785Z,5.30
2018-09-29T01:50:44.110Z,4.70
2018-09-29T01:53:14.398Z,4.47
2018-09-29T01:55:44.701Z,4.77
2018-09-29T01:58:14.980Z,4.50
2018-09-29T02:00:45.317Z,4.43
2018-09-29T02:03:15.597Z,3.80
2018-09-29T02:05:45.932Z,4.20
2018-09-29T02:08:16.244Z,4.43
2018-09-29T02:10:46.628Z,4.10
2018-09-29T02:13:16.946Z,4.10
2018-09-29T02:15:47.302Z,3.90
2018-09-29T02:18:17.624Z,3.97
2018-09-29T02:20:47.957Z,3.63
2018-09-29T02:23:18.260Z,4.10
2018-09-29T02:25:48.555Z,4.10
2018-09-29T02:28:18.840Z,3.60
2018-09-29T02:30:49.385Z,3.80
2018-09-29T02:33:19.706Z,3.30
2018-09-29T02:35:50.034Z,3.33
2018-09-29T02:38:20.339Z,3.73
2018-09-29T02:40:50.942Z,3.53
2018-09-29T02:43:21.282Z,3.47
2018-09-29T02:45:51.613Z,3.07
2018-09-29T02:48:21.931Z,2.93
2018-09-29T02:50:52.301Z,3.20
2018-09-29T02:53:22.647Z,3.03
2018-09-29T02:55:53.016Z,3.00
2018-09-29T02:58:23.350Z,3.33
2018-09-29T03:00:53.686Z,3.60
2018-09-29T03:03:23.968Z,2.37
2018-09-29T03:05:54.309Z,2.80
2018-09-29T03:08:24.593Z,2.37
2018-09-29T03:10:54.920Z,1.87
2018-09-29T03:13:25.237Z,2.10
2018-09-29T03:15:55.543Z,2.30
2018-09-29T03:18:25.824Z,2.07
2018-09-29T03:20:56.131Z,1.90
2018-09-29T03:23:26.470Z,2.40
2018-09-29T03:25:56.814Z,1.67
2018-09-29T03:28:27.133Z,2.10
2018-09-29T03:30:57.444Z,1.73
2018-09-29T03:33:27.736Z,1.90
2018-09-29T03:35:58.388Z,1.73
2018-09-29T03:38:28.715Z,1.70
2018-09-29T03:40:59.157Z,1.97
2018-09-29T03:43:29.505Z,1.60
2018-09-29T03:45:59.925Z,1.50
2018-09-29T03:48:30.267Z,1.67
2018-09-29T03:51:00.576Z,1.80
2018-09-29T03:53:30.929Z,1.70
2018-09-29T03:56:01.275Z,1.70
2018-09-29T03:58:31.623Z,2.00
2018-09-29T04:01:01.928Z,1.87
2018-09-29T04:03:32.273Z,1.57
2018-09-29T04:06:02.600Z,1.93
2018-09-29T04:08:32.861Z,1.80
2018-09-29T04:11:03.218Z,1.63
2018-09-29T04:13:33.611Z,1.70
2018-09-29T04:16:03.965Z,12.03
2018-09-29T04:18:34.330Z,10.90
2018-09-29T04:21:04.771Z,3.47
2018-09-29T04:23:35.061Z,3.60
2018-09-29T04:26:05.471Z,16.67
2018-09-29T04:28:35.823Z,20.77
2018-09-29T04:31:06.305Z,9.30
2018-09-29T04:33:36.630Z,2.03
2018-09-29T04:36:06.998Z,7.57
2018-09-29T04:38:37.232Z,7.73
2018-09-29T04:41:08.109Z,2.70
2018-09-29T04:43:38.534Z,2.60
2018-09-29T04:46:08.920Z,2.23
2018-09-29T04:48:39.349Z,2.20
2018-09-29T04:51:09.765Z,2.83
2018-09-29T04:53:40.092Z,3.13
2018-09-29T04:56:10.463Z,3.00
2018-09-29T04:58:40.770Z,2.60
2018-09-29T05:01:11.140Z,2.80
2018-09-29T05:03:41.478Z,3.60
2018-09-29T05:06:11.891Z,3.50
2018-09-29T05:08:42.284Z,3.17
2018-09-29T05:11:12.671Z,4.30
2018-09-29T05:13:43.005Z,4.90
2018-09-29T05:16:13.324Z,4.93
2018-09-29T05:18:43.854Z,4.13
2018-09-29T05:21:14.209Z,4.40
2018-09-29T05:23:44.613Z,4.37
2018-09-29T05:26:14.930Z,4.00
2018-09-29T05:28:45.334Z,4.00
2018-09-29T05:31:15.800Z,5.07
2018-09-29T05:33:46.086Z,5.07
2018-09-29T05:36:16.462Z,5.67
2018-09-29T05:38:46.806Z,6.17
2018-09-29T05:41:17.135Z,6.50
2018-09-29T05:43:47.457Z,20.63
2018-09-29T05:46:17.832Z,15.73
2018-09-29T05:48:48.189Z,6.67
2018-09-29T05:51:18.539Z,5.97
2018-09-29T05:53:48.879Z,6.50
2018-09-29T05:56:19.261Z,6.70
2018-09-29T05:58:49.589Z,6.37
2018-09-29T06:01:19.975Z,10.50
2018-09-29T06:03:50.319Z,16.63
2018-09-29T06:06:20.714Z,12.57
2018-09-29T06:08:51.067Z,6.27
2018-09-29T06:11:21.597Z,6.87
2018-09-29T06:13:51.876Z,6.20
2018-09-29T06:16:22.430Z,7.03
2018-09-29T06:18:52.905Z,5.50
2018-09-29T06:21:23.260Z,7.17
2018-09-29T06:23:53.561Z,5.30
2018-09-29T06:26:25.215Z,5.80
2018-09-29T06:28:55.519Z,5.37
2018-09-29T06:31:26.592Z,5.53
2018-09-29T06:33:57.932Z,6.00
2018-09-29T06:36:28.278Z,5.40
2018-09-29T06:38:58.558Z,5.40
2018-09-29T06:41:29.649Z,5.30
2018-09-29T06:44:00.019Z,14.17
2018-09-29T06:46:30.700Z,15.10
2018-09-29T06:49:01.018Z,5.23
2018-09-29T06:51:31.405Z,4.80
2018-09-29T06:54:01.776Z,4.93
2018-09-29T06:56:32.078Z,4.73
2018-09-29T06:59:02.429Z,4.60
2018-09-29T07:01:32.867Z,4.67
2018-09-29T07:04:03.224Z,4.50
2018-09-29T07:06:33.535Z,5.07
2018-09-29T07:09:05.275Z,5.17
2018-09-29T07:11:35.543Z,5.23
2018-09-29T07:14:07.576Z,4.70
2018-09-29T07:16:37.888Z,4.40
2018-09-29T07:19:08.208Z,4.87
2018-09-29T07:21:38.496Z,4.13
2018-09-29T07:24:08.789Z,4.40
2018-09-29T07:26:39.204Z,4.50
2018-09-29T07:29:09.537Z,4.80
2018-09-29T07:31:39.900Z,4.83
2018-09-29T07:34:10.242Z,3.90
2018-09-29T07:36:40.600Z,4.97
2018-09-29T07:39:11.670Z,4.40
2018-09-29T07:41:42.002Z,4.43
2018-09-29T07:44:12.334Z,4.40
2018-09-29T07:46:42.677Z,4.37
2018-09-29T07:49:13.027Z,3.93
2018-09-29T07:51:43.378Z,5.83
2018-09-29T07:54:13.692Z,4.70
2018-09-29T07:56:44.019Z,4.20
2018-09-29T07:59:14.348Z,4.67
2018-09-29T08:01:44.645Z,4.73
2018-09-29T08:04:14.965Z,4.57
2018-09-29T08:06:45.326Z,4.30
2018-09-29T08:09:15.660Z,4.10
2018-09-29T08:11:45.979Z,4.07
2018-09-29T08:14:16.271Z,4.43
2018-09-29T08:16:46.597Z,4.20
2018-09-29T08:19:16.952Z,4.20
2018-09-29T08:21:47.272Z,3.90
2018-09-29T08:24:17.559Z,3.60
2018-09-29T08:26:47.918Z,3.80
2018-09-29T08:29:18.221Z,4.20
2018-09-29T08:31:48.584Z,3.30
2018-09-29T08:34:18.981Z,3.30
2018-09-29T08:37:01.620Z,3.40
2018-09-29T08:39:31.964Z,3.13
2018-09-29T08:42:02.301Z,2.63
2018-09-29T08:44:32.625Z,3.13
2018-09-29T08:47:03.014Z,2.90
2018-09-29T08:49:33.311Z,3.00
2018-09-29T08:52:03.636Z,3.50
2018-09-29T08:54:34.028Z,3.80
2018-09-29T08:57:04.648Z,3.70
2018-09-29T08:59:34.953Z,2.93
2018-09-29T09:02:05.287Z,3.60
2018-09-29T09:04:35.631Z,3.47
2018-09-29T09:07:06.589Z,3.07
2018-09-29T09:09:36.970Z,3.10
2018-09-29T09:12:07.293Z,2.80
2018-09-29T09:14:37.626Z,2.33
2018-09-29T09:17:07.956Z,2.40
2018-09-29T09:19:38.246Z,2.73
2018-09-29T09:22:08.601Z,2.53
2018-09-29T09:24:38.943Z,2.17
2018-09-29T09:27:09.292Z,2.70
2018-09-29T09:29:39.630Z,2.20
2018-09-29T09:32:09.985Z,2.70
2018-09-29T09:34:40.536Z,2.83
2018-09-29T09:37:10.863Z,2.40
2018-09-29T09:39:41.236Z,2.20
2018-09-29T09:42:11.547Z,1.90
2018-09-29T09:44:41.850Z,2.70
2018-09-29T09:47:12.158Z,3.27
2018-09-29T09:49:42.467Z,2.20
2018-09-29T09:52:12.782Z,1.80
2018-09-29T09:54:43.065Z,2.17
2018-09-29T09:57:13.385Z,1.90
2018-09-29T09:59:43.674Z,2.10
2018-09-29T10:02:19.285Z,2.00
2018-09-29T10:04:49.559Z,2.00
2018-09-29T10:07:19.877Z,2.20
2018-09-29T10:09:50.176Z,1.97
2018-09-29T10:12:20.463Z,2.20
2018-09-29T10:14:50.779Z,2.00
2018-09-29T10:17:21.153Z,4.80
2018-09-29T10:19:51.431Z,2.37
2018-09-29T10:22:21.765Z,7.77
2018-09-29T10:24:52.095Z,10.67
2018-09-29T10:27:22.389Z,2.43
2018-09-29T10:29:52.702Z,6.73
2018-09-29T10:32:23.005Z,4.40
2018-09-29T10:34:53.386Z,18.47
2018-09-29T10:37:23.705Z,3.03
2018-09-29T10:39:54.003Z,2.33
2018-09-29T10:42:24.316Z,2.90
2018-09-29T10:44:54.597Z,2.87
2018-09-29T10:47:24.956Z,2.30
2018-09-29T10:49:55.245Z,2.33
2018-09-29T10:52:25.601Z,3.20
2018-09-29T10:54:55.865Z,2.83
2018-09-29T10:57:26.194Z,2.73
2018-09-29T10:59:56.458Z,2.57
2018-09-29T11:02:27.143Z,2.87
2018-09-29T11:04:57.438Z,3.10
2018-09-29T11:07:27.658Z,2.87
2018-09-29T11:09:58.264Z,3.00
2018-09-29T11:12:28.545Z,3.20
2018-09-29T11:14:58.838Z,3.23
2018-09-29T11:17:29.133Z,2.87
2018-09-29T11:19:59.485Z,2.87
2018-09-29T11:22:29.773Z,2.70
2018-09-29T11:25:00.107Z,2.90
2018-09-29T11:27:30.417Z,3.37
2018-09-29T11:30:00.718Z,2.80
2018-09-29T11:32:31.079Z,2.90
2018-09-29T11:35:01.400Z,7.63
2018-09-29T11:37:31.760Z,7.40
2018-09-29T11:40:02.057Z,13.70
2018-09-29T11:42:32.389Z,3.37
2018-09-29T11:45:02.710Z,2.80
2018-09-29T11:47:33.009Z,2.83
2018-09-29T11:50:03.346Z,3.80
2018-09-29T11:52:33.694Z,4.23
2018-09-29T11:55:04.110Z,3.63
2018-09-29T11:57:34.422Z,2.83
2018-09-29T12:00:05.210Z,3.10
2018-09-29T12:02:35.543Z,10.50
2018-09-29T12:05:05.972Z,4.60
2018-09-29T12:07:36.262Z,3.10
2018-09-29T12:10:06.785Z,4.13
2018-09-29T12:12:37.146Z,2.70
2018-09-29T12:15:07.526Z,2.93
2018-09-29T12:17:37.914Z,2.97
2018-09-29T12:20:08.337Z,2.60
2018-09-29T12:22:38.714Z,3.10
2018-09-29T12:25:09.089Z,3.20
2018-09-29T12:27:39.392Z,3.30
2018-09-29T12:30:09.841Z,2.60
2018-09-29T12:32:40.264Z,2.43
2018-09-29T12:35:10.601Z,3.40
2018-09-29T12:37:40.952Z,2.37
2018-09-29T12:40:11.273Z,2.50
2018-09-29T12:42:41.628Z,2.40
2018-09-29T12:45:11.915Z,2.13
2018-09-29T12:47:42.372Z,2.60
2018-09-29T12:50:12.757Z,2.40
2018-09-29T12:52:43.038Z,2.60
2018-09-29T12:55:13.438Z,2.60
2018-09-29T12:57:43.738Z,2.20
2018-09-29T13:00:14.117Z,2.30
2018-09-29T13:02:44.462Z,2.23
2018-09-29T13:05:14.917Z,2.40
2018-09-29T13:07:45.492Z,2.07
2018-09-29T13:10:15.845Z,2.30
2018-09-29T13:12:46.128Z,2.13
2018-09-29T13:15:16.477Z,2.10
2018-09-29T13:17:46.787Z,2.57
2018-09-29T13:20:17.125Z,2.10
2018-09-29T13:22:47.437Z,2.17
2018-09-29T13:25:17.770Z,2.30
2018-09-29T13:27:48.140Z,1.93
2018-09-29T13:30:18.518Z,2.23
2018-09-29T13:32:48.847Z,2.07
2018-09-29T13:35:19.169Z,1.83
2018-09-29T13:37:50.401Z,1.93
2018-09-29T13:40:20.792Z,1.93
2018-09-29T13:42:51.076Z,2.00
2018-09-29T13:45:21.438Z,2.27
2018-09-29T13:47:51.744Z,2.10
2018-09-29T13:50:22.055Z,2.33
2018-09-29T13:52:52.410Z,2.30
2018-09-29T13:55:22.757Z,2.67
2018-09-29T13:57:53.028Z,2.73
2018-09-29T14:00:23.403Z,1.90
2018-09-29T14:02:53.726Z,2.10
2018-09-29T14:05:24.052Z,2.20
2018-09-29T14:07:54.361Z,2.20
2018-09-29T14:10:24.744Z,2.93
2018-09-29T14:12:55.049Z,1.77
2018-09-29T14:15:25.373Z,2.00
2018-09-29T14:17:55.726Z,1.93
2018-09-29T14:20:26.047Z,2.10
2018-09-29T14:22:56.361Z,2.80
2018-09-29T14:25:26.661Z,2.50
2018-09-29T14:27:56.977Z,2.30
2018-09-29T14:30:27.346Z,2.33
2018-09-29T14:32:57.671Z,2.40
2018-09-29T14:35:27.934Z,6.33
2018-09-29T14:37:58.261Z,5.40
2018-09-29T14:40:28.564Z,3.20
2018-09-29T14:42:58.894Z,3.43
2018-09-29T14:45:29.193Z,3.87
2018-09-29T14:47:59.522Z,4.47
2018-09-29T14:50:29.835Z,4.07
2018-09-29T14:53:00.173Z,2.80
2018-09-29T14:55:30.536Z,3.90
2018-09-29T14:58:00.922Z,4.57
2018-09-29T15:00:31.211Z,3.70
2018-09-29T15:03:01.505Z,4.03
2018-09-29T15:05:31.788Z,3.33
2018-09-29T15:08:02.103Z,4.00
2018-09-29T15:10:32.421Z,4.20
2018-09-29T15:13:02.724Z,3.40
2018-09-29T15:15:33.067Z,3.70
2018-09-29T15:18:03.417Z,2.87
2018-09-29T15:20:33.805Z,2.90
2018-09-29T15:23:04.056Z,3.30
2018-09-29T15:25:34.321Z,3.10
2018-09-29T15:28:05.585Z,3.53
2018-09-29T15:30:35.968Z,4.43
2018-09-29T15:33:06.409Z,10.47
2018-09-29T15:35:36.852Z,8.70
2018-09-29T15:38:07.152Z,6.77
2018-09-29T15:40:37.458Z,6.13
2018-09-29T15:43:07.869Z,4.90
2018-09-29T15:45:38.223Z,2.97
2018-09-29T15:48:08.548Z,3.30
2018-09-29T15:50:38.945Z,5.43
2018-09-29T15:53:09.287Z,4.93
2018-09-29T15:55:39.623Z,5.63
2018-09-29T15:58:09.956Z,5.57
2018-09-29T16:00:40.270Z,4.83
2018-09-29T16:03:10.612Z,4.27
2018-09-29T16:05:40.889Z,3.57
2018-09-29T16:08:11.248Z,3.93
2018-09-29T16:10:41.681Z,3.30
2018-09-29T16:13:12.084Z,3.47
2018-09-29T16:15:42.412Z,3.03
2018-09-29T16:18:13.692Z,3.40
2018-09-29T16:20:44.021Z,3.53
2018-09-29T16:23:14.377Z,3.40
2018-09-29T16:25:44.663Z,5.53
2018-09-29T16:28:15.001Z,11.63
2018-09-29T16:30:47.426Z,8.97
2018-09-29T16:33:17.746Z,4.00
2018-09-29T16:35:49.020Z,4.10
2018-09-29T16:38:19.361Z,3.73
2018-09-29T16:40:49.988Z,3.50
2018-09-29T16:43:20.256Z,3.77
2018-09-29T16:45:50.622Z,4.63
2018-09-29T16:48:20.940Z,3.67
2018-09-29T16:50:51.833Z,4.00
2018-09-29T16:53:22.149Z,3.33
2018-09-29T16:55:52.504Z,3.57
2018-09-29T16:58:22.928Z,3.00
2018-09-29T17:00:53.254Z,3.83
2018-09-29T17:03:23.570Z,3.23
2018-09-29T17:05:53.925Z,3.37
2018-09-29T17:08:24.288Z,3.17
2018-09-29T17:10:54.626Z,3.40
2018-09-29T17:13:25.014Z,3.37
2018-09-29T17:15:55.460Z,3.50
2018-09-29T17:18:25.775Z,3.87
2018-09-29T17:20:56.130Z,3.70
2018-09-29T17:23:26.481Z,9.63
2018-09-29T17:25:56.809Z,47.63
2018-09-29T17:28:27.124Z,9.50
2018-09-29T17:30:57.699Z,3.10
2018-09-29T17:33:28.006Z,3.90
2018-09-29T17:35:58.736Z,3.63
2018-09-29T17:38:29.040Z,3.93
2018-09-29T17:40:59.374Z,3.83
2018-09-29T17:43:29.738Z,3.70
2018-09-29T17:46:00.064Z,3.30
2018-09-29T17:48:30.325Z,3.97
2018-09-29T17:51:00.670Z,3.70
2018-09-29T17:53:30.969Z,3.67
2018-09-29T17:56:01.732Z,4.07
2018-09-29T17:58:32.082Z,4.17
2018-09-29T18:01:02.392Z,3.27
2018-09-29T18:03:32.717Z,4.20
2018-09-29T18:06:03.034Z,5.67
2018-09-29T18:08:33.405Z,5.13
2018-09-29T18:11:03.699Z,5.10
2018-09-29T18:13:34.062Z,5.47
2018-09-29T18:16:04.616Z,5.93
2018-09-29T18:18:34.928Z,8.47
2018-09-29T18:21:05.310Z,6.97
2018-09-29T18:23:36.198Z,6.90
2018-09-29T18:26:06.691Z,7.47
2018-09-29T18:28:37.088Z,7.63
2018-09-29T18:31:07.437Z,10.40
2018-09-29T18:33:37.733Z,10.40
2018-09-29T18:36:08.152Z,10.37
2018-09-29T18:38:38.962Z,11.10
2018-09-29T18:41:09.273Z,12.10
2018-09-29T18:43:39.647Z,13.57
2018-09-29T18:46:09.991Z,13.27
2018-09-29T18:48:40.428Z,14.50
2018-09-29T18:51:10.779Z,14.13
2018-09-29T18:53:41.177Z,13.87
2018-09-29T18:56:11.481Z,12.77
2018-09-29T18:58:41.825Z,12.70
2018-09-29T19:01:12.186Z,13.43
2018-09-29T19:03:42.562Z,13.43
2018-09-29T19:06:12.875Z,11.60
2018-09-29T19:08:43.508Z,12.40
2018-09-29T19:11:13.893Z,12.60
2018-09-29T19:13:44.180Z,11.63
2018-09-29T19:16:14.737Z,11.57
2018-09-29T19:18:45.075Z,10.43
2018-09-29T19:21:15.407Z,10.30
2018-09-29T19:23:45.745Z,8.13
2018-09-29T19:26:16.082Z,9.33
2018-09-29T19:28:46.981Z,8.57
2018-09-29T19:31:17.333Z,9.43
2018-09-29T19:33:47.656Z,8.30
2018-09-29T19:36:18.565Z,8.60
2018-09-29T19:38:48.960Z,8.07
2018-09-29T19:41:19.549Z,7.30
2018-09-29T19:43:49.800Z,8.07
2018-09-29T19:46:20.099Z,8.43
2018-09-29T19:48:50.393Z,7.10
2018-09-29T19:51:20.757Z,7.30
2018-09-29T19:53:50.998Z,6.50
2018-09-29T19:56:21.273Z,6.70
2018-09-29T19:58:51.566Z,6.83
2018-09-29T20:01:21.869Z,6.90
2018-09-29T20:03:52.273Z,6.73
2018-09-29T20:06:22.558Z,6.20
2018-09-29T20:08:52.840Z,7.17
2018-09-29T20:11:24.197Z,6.03
2018-09-29T20:13:54.481Z,6.30
2018-09-29T20:16:25.810Z,6.90
2018-09-29T20:18:56.063Z,7.40
2018-09-29T20:21:26.309Z,6.97
2018-09-29T20:23:56.625Z,8.03
2018-09-29T20:26:26.913Z,8.07
2018-09-29T20:28:57.276Z,6.23
2018-09-29T20:31:27.570Z,6.50
2018-09-29T20:33:57.858Z,6.00
2018-09-29T20:36:28.260Z,5.33
2018-09-29T20:38:58.685Z,5.70
2018-09-29T20:41:28.968Z,4.57
2018-09-29T20:43:59.339Z,6.03
2018-09-29T20:46:29.614Z,5.20
2018-09-29T20:48:59.937Z,5.90
2018-09-29T20:51:30.229Z,6.50
2018-09-29T20:54:00.523Z,6.10
2018-09-29T20:56:31.025Z,6.20
2018-09-29T20:59:01.634Z,6.40
2018-09-29T21:01:31.922Z,5.50
2018-09-29T21:04:02.440Z,5.40
2018-09-29T21:06:32.742Z,5.60
2018-09-29T21:09:03.072Z,5.57
2018-09-29T21:11:33.501Z,5.30
2018-09-29T21:14:03.900Z,5.90
2018-09-29T21:16:34.854Z,6.77
2018-09-29T21:19:05.154Z,5.87
2018-09-29T21:21:35.496Z,6.50
2018-09-29T21:24:05.779Z,5.00
2018-09-29T21:26:36.084Z,4.47
2018-09-29T21:29:06.386Z,4.80
2018-09-29T21:31:36.706Z,4.87
2018-09-29T21:34:07.020Z,5.20
2018-09-29T21:36:37.413Z,4.90
2018-09-29T21:39:09.518Z,4.30
2018-09-29T21:41:39.785Z,4.67
2018-09-29T21:44:10.101Z,5.27
2018-09-29T21:46:40.391Z,4.67
2018-09-29T21:49:10.695Z,5.03
2018-09-29T21:51:40.928Z,5.47
2018-09-29T21:54:11.217Z,4.80
2018-09-29T21:56:41.552Z,5.07
2018-09-29T21:59:11.926Z,4.63
2018-09-29T22:01:42.177Z,4.80
2018-09-29T22:04:12.526Z,5.10
2018-09-29T22:06:43.052Z,6.57
2018-09-29T22:09:17.388Z,6.60
2018-09-29T22:11:47.646Z,7.70
2018-09-29T22:14:17.955Z,6.47
2018-09-29T22:16:48.251Z,7.40
2018-09-29T22:19:18.531Z,7.00
2018-09-29T22:21:48.826Z,7.23
2018-09-29T22:24:19.179Z,7.10
2018-09-29T22:26:49.425Z,5.60
2018-09-29T22:29:19.744Z,7.47
2018-09-29T22:31:50.100Z,6.17
2018-09-29T22:34:20.336Z,6.50
2018-09-29T22:36:51.533Z,6.37
2018-09-29T22:39:21.832Z,5.77
2018-09-29T22:41:52.096Z,5.07
2018-09-29T22:44:22.372Z,4.90
2018-09-29T22:46:52.721Z,5.40
2018-09-29T22:49:22.992Z,5.50
2018-09-29T22:51:53.300Z,5.70
2018-09-29T22:54:23.565Z,5.17
2018-09-29T22:56:53.869Z,4.60
2018-09-29T22:59:24.168Z,4.30
2018-09-29T23:01:54.452Z,4.10
2018-09-29T23:04:25.008Z,4.00
2018-09-29T23:06:55.776Z,3.97
2018-09-29T23:09:26.076Z,4.87
2018-09-29T23:11:56.331Z,8.03
2018-09-29T23:14:26.634Z,7.50
2018-09-29T23:16:56.994Z,7.53
2018-09-29T23:19:27.278Z,7.93
2018-09-29T23:21:57.923Z,8.70
2018-09-29T23:24:28.253Z,7.33
2018-09-29T23:26:58.661Z,7.10
2018-09-29T23:29:28.935Z,6.33
2018-09-29T23:31:59.220Z,4.90
2018-09-29T23:34:29.455Z,6.80
2018-09-29T23:37:00.449Z,6.27
2018-09-29T23:39:30.707Z,5.60
2018-09-29T23:42:01.272Z,4.57
2018-09-29T23:44:31.533Z,4.00
2018-09-29T23:47:01.845Z,3.80
2018-09-29T23:49:32.165Z,4.40
2018-09-29T23:52:03.155Z,3.70
2018-09-29T23:54:33.410Z,3.97
2018-09-29T23:57:03.663Z,3.90
2018-09-29T23:59:33.935Z,4.10
